createdAt,value
2018-05-21T00:02:04.868Z,12.60
2018-05-21T00:12:06.987Z,12.40
2018-05-21T00:22:09.102Z,12.50
2018-05-21T00:32:10.457Z,12.40
2018-05-21T00:42:11.814Z,12.30
2018-05-21T00:52:13.183Z,12.30
2018-05-21T01:02:15.274Z,12.60
2018-05-21T01:12:16.594Z,12.60
2018-05-21T01:32:25.399Z,12.90
2018-05-21T01:42:26.789Z,12.80
2018-05-21T01:52:28.114Z,12.60
2018-05-21T02:02:29.462Z,12.40
2018-05-21T02:12:30.826Z,12.30
2018-05-21T02:22:32.997Z,12.50
2018-05-21T02:32:34.413Z,12.50
2018-05-21T02:42:35.802Z,12.50
2018-05-21T02:52:37.160Z,12.60
2018-05-21T03:02:38.477Z,12.60
2018-05-21T03:12:39.797Z,12.60
2018-05-21T03:22:41.118Z,12.70
2018-05-21T03:32:43.211Z,12.60
2018-05-21T03:42:44.533Z,12.70
2018-05-21T03:52:46.678Z,13.00
2018-05-21T04:02:48.058Z,13.00
2018-05-21T04:12:50.174Z,13.20
2018-05-21T04:22:51.560Z,13.30
2018-05-21T04:32:53.695Z,13.20
2018-05-21T04:42:55.052Z,13.20
2018-05-21T04:52:56.405Z,13.50
2018-05-21T05:02:57.733Z,13.80
2018-05-21T05:12:59.058Z,13.80
2018-05-21T05:23:00.377Z,13.60
2018-05-21T05:33:01.701Z,13.90
2018-05-21T05:43:03.069Z,14.70
2018-05-21T05:53:05.286Z,16.10
2018-05-21T06:03:06.658Z,16.00
2018-05-21T06:13:08.014Z,16.00
2018-05-21T06:23:09.407Z,15.80
2018-05-21T06:33:12.714Z,15.80
2018-05-21T06:43:17.468Z,16.70
2018-05-21T06:53:19.002Z,17.60
2018-05-21T07:03:20.333Z,18.10
2018-05-21T07:13:21.680Z,19.40
2018-05-21T07:23:23.008Z,21.00
2018-05-21T07:33:25.473Z,22.10
2018-05-21T07:43:28.003Z,23.30
2018-05-21T07:53:29.471Z,24.20
2018-05-21T08:03:30.824Z,22.20
2018-05-21T08:13:32.178Z,22.40
2018-05-21T08:23:33.532Z,21.50
2018-05-21T08:33:35.640Z,19.80
2018-05-21T08:43:36.973Z,19.80
2018-05-21T08:53:38.284Z,19.90
2018-05-21T09:03:39.625Z,19.30
2018-05-21T09:13:40.935Z,19.40
2018-05-21T09:23:43.068Z,20.30
2018-05-21T09:33:44.402Z,20.30
2018-05-21T09:43:45.757Z,22.30
2018-05-21T09:53:47.110Z,24.40
2018-05-21T10:03:48.506Z,29.70
2018-05-21T10:13:49.854Z,31.60
2018-05-21T10:23:51.975Z,27.70
2018-05-21T10:33:58.749Z,25.30
2018-05-21T10:44:00.075Z,25.20
2018-05-21T10:54:01.391Z,23.10
2018-05-21T11:04:03.469Z,23.00
2018-05-21T11:14:04.794Z,23.00
2018-05-21T11:24:06.165Z,23.70
2018-05-21T11:34:07.540Z,23.60
2018-05-21T11:44:08.895Z,24.70
2018-05-21T11:54:11.017Z,22.50
2018-05-21T12:04:13.149Z,22.00
2018-05-21T12:14:14.498Z,21.90
2018-05-21T12:24:15.807Z,21.60
2018-05-21T12:34:19.931Z,22.90
2018-05-21T12:44:21.255Z,22.80
2018-05-21T12:54:22.623Z,22.50
2018-05-21T13:04:24.039Z,22.00
2018-05-21T13:14:25.430Z,21.50
2018-05-21T13:34:33.201Z,20.60
2018-05-21T13:44:34.576Z,20.50
2018-05-21T13:54:35.993Z,20.40
2018-05-21T14:04:37.341Z,20.50
2018-05-21T14:14:39.254Z,20.30
2018-05-21T14:24:41.421Z,19.40
2018-05-21T14:34:43.767Z,19.40
2018-05-21T14:44:45.544Z,19.00
2018-05-21T14:54:46.938Z,19.40
2018-05-21T15:04:49.057Z,20.70
2018-05-21T15:14:51.175Z,20.80
2018-05-21T15:24:53.409Z,20.60
2018-05-21T15:34:54.765Z,20.60
2018-05-21T15:44:56.129Z,20.20
2018-05-21T15:54:57.556Z,19.50
2018-05-21T16:15:05.542Z,18.40
2018-05-21T16:25:07.397Z,18.40
2018-05-21T16:35:09.751Z,17.80
2018-05-21T16:45:12.185Z,17.80
2018-05-21T16:55:13.708Z,17.70
2018-05-21T17:05:15.957Z,18.00
2018-05-21T17:15:17.453Z,17.80
2018-05-21T17:55:44.519Z,16.80
2018-05-21T18:05:45.926Z,16.90
2018-05-21T18:15:47.586Z,16.60
2018-05-21T18:25:49.786Z,16.00
2018-05-21T18:35:51.182Z,16.00
2018-05-21T18:45:52.507Z,15.70
2018-05-21T18:55:54.765Z,15.30
2018-05-21T19:05:56.260Z,15.30
2018-05-21T19:15:57.633Z,15.30
2018-05-21T19:25:59.001Z,15.30
2018-05-21T19:36:00.444Z,15.10
2018-05-21T19:56:08.913Z,14.50
2018-05-21T20:06:10.645Z,14.30
2018-05-21T20:16:11.968Z,14.10
2018-05-21T20:26:13.311Z,14.10
2018-05-21T20:36:14.671Z,13.90
2018-05-21T20:46:16.762Z,13.30
2018-05-21T20:56:18.873Z,13.20
2018-05-21T21:06:24.972Z,13.10
2018-05-21T21:26:32.927Z,12.80
2018-05-21T21:36:34.296Z,12.60
2018-05-21T21:46:36.422Z,12.30
2018-05-21T21:56:37.863Z,12.30
2018-05-21T22:06:39.239Z,12.30
2018-05-21T22:16:40.578Z,12.20
2018-05-21T22:26:41.917Z,12.10
2018-05-21T22:36:43.267Z,11.90
2018-05-21T22:46:44.621Z,11.80
2018-05-21T22:56:45.964Z,11.70
2018-05-21T23:06:47.312Z,11.60
2018-05-21T23:16:48.665Z,11.60
2018-05-21T23:26:50.045Z,11.50
2018-05-21T23:36:51.430Z,11.40
2018-05-21T23:46:52.800Z,11.20
2018-05-21T23:56:54.167Z,11.10
